createdAt,value
2023-05-18T00:00:32.939Z,0.00
2023-05-18T00:01:32.921Z,0.00
2023-05-18T00:02:33.133Z,0.00
2023-05-18T00:03:33.088Z,0.00
2023-05-18T00:04:32.943Z,0.00
2023-05-18T00:05:32.878Z,0.00
2023-05-18T00:06:32.862Z,0.00
2023-05-18T00:07:32.862Z,0.00
2023-05-18T00:08:32.882Z,0.00
2023-05-18T00:09:32.832Z,0.00
2023-05-18T00:10:32.873Z,0.00
2023-05-18T00:11:32.807Z,0.00
2023-05-18T00:12:32.806Z,0.00
2023-05-18T00:13:32.792Z,0.00
2023-05-18T00:14:32.928Z,0.00
2023-05-18T00:15:32.971Z,0.00
2023-05-18T00:16:32.824Z,0.00
2023-05-18T00:17:32.763Z,0.00
2023-05-18T00:18:32.745Z,0.00
2023-05-18T00:19:32.729Z,0.00
2023-05-18T00:20:32.874Z,0.00
2023-05-18T00:21:32.713Z,0.00
2023-05-18T00:22:32.720Z,0.00
2023-05-18T00:23:32.694Z,0.00
2023-05-18T00:24:33.065Z,0.00
2023-05-18T00:25:32.671Z,0.00
2023-05-18T00:26:32.801Z,0.00
2023-05-18T00:27:32.653Z,0.00
2023-05-18T00:28:32.649Z,0.00
2023-05-18T00:29:32.629Z,0.00
2023-05-18T00:30:32.620Z,0.00
2023-05-18T00:31:32.661Z,0.00
2023-05-18T00:32:33.058Z,0.00
2023-05-18T00:33:32.591Z,0.00
2023-05-18T00:34:32.584Z,0.00
2023-05-18T00:35:32.656Z,0.00
2023-05-18T00:36:32.569Z,0.00
2023-05-18T00:37:32.558Z,0.00
2023-05-18T00:38:32.675Z,0.00
2023-05-18T00:39:32.532Z,0.00
2023-05-18T00:40:32.539Z,0.00
2023-05-18T00:41:32.511Z,0.00
2023-05-18T00:42:32.506Z,0.00
2023-05-18T00:43:32.489Z,0.00
2023-05-18T00:44:32.637Z,0.00
2023-05-18T00:45:32.791Z,0.00
2023-05-18T00:46:32.635Z,0.00
2023-05-18T00:47:32.460Z,0.00
2023-05-18T00:48:32.451Z,0.00
2023-05-18T00:49:32.453Z,0.00
2023-05-18T00:50:32.552Z,0.00
2023-05-18T00:51:32.412Z,0.00
2023-05-18T00:52:32.397Z,0.00
2023-05-18T00:53:32.397Z,0.00
2023-05-18T00:54:32.380Z,0.00
2023-05-18T00:55:32.595Z,0.00
2023-05-18T00:56:32.496Z,0.00
2023-05-18T00:57:32.350Z,0.00
2023-05-18T00:58:32.340Z,0.00
2023-05-18T00:59:32.333Z,0.00
2023-05-18T01:00:32.320Z,0.00
2023-05-18T01:01:32.388Z,0.00
2023-05-18T01:02:32.518Z,0.00
2023-05-18T01:03:32.336Z,0.00
2023-05-18T01:04:32.283Z,0.00
2023-05-18T01:05:32.493Z,0.00
2023-05-18T01:06:32.254Z,0.00
2023-05-18T01:07:32.263Z,0.00
2023-05-18T01:08:32.277Z,0.00
2023-05-18T01:09:32.236Z,0.00
2023-05-18T01:10:32.226Z,0.00
2023-05-18T01:11:32.263Z,0.00
2023-05-18T01:12:32.198Z,0.00
2023-05-18T01:13:32.187Z,0.00
2023-05-18T01:14:32.476Z,0.00
2023-05-18T01:15:32.352Z,0.00
2023-05-18T01:16:32.171Z,0.00
2023-05-18T01:17:32.212Z,0.00
2023-05-18T01:18:32.148Z,0.00
2023-05-18T01:19:32.134Z,0.00
2023-05-18T01:20:32.277Z,0.00
2023-05-18T01:21:32.121Z,0.00
2023-05-18T01:22:32.092Z,0.00
2023-05-18T01:23:32.087Z,0.00
2023-05-18T01:24:32.077Z,0.00
2023-05-18T01:25:32.150Z,0.00
2023-05-18T01:26:32.080Z,0.00
2023-05-18T01:27:32.046Z,0.00
2023-05-18T01:28:32.039Z,0.00
2023-05-18T01:29:32.024Z,0.00
2023-05-18T01:30:32.011Z,0.00
2023-05-18T01:31:32.055Z,0.00
2023-05-18T01:32:32.204Z,0.00
2023-05-18T01:33:32.012Z,0.00
2023-05-18T01:34:31.983Z,0.00
2023-05-18T01:35:32.122Z,0.00
2023-05-18T01:36:31.954Z,0.00
2023-05-18T01:37:31.959Z,0.00
2023-05-18T01:38:32.081Z,0.00
2023-05-18T01:39:31.923Z,0.00
2023-05-18T01:40:31.913Z,0.00
2023-05-18T01:41:31.914Z,0.00
2023-05-18T01:42:31.896Z,0.00
2023-05-18T01:43:31.896Z,0.00
2023-05-18T01:44:32.021Z,0.00
2023-05-18T01:45:32.099Z,0.00
2023-05-18T01:46:31.897Z,0.00
2023-05-18T01:47:31.969Z,0.00
2023-05-18T01:48:31.828Z,0.00
2023-05-18T01:49:31.818Z,0.00
2023-05-18T01:50:31.961Z,0.00
2023-05-18T01:51:31.793Z,0.00
2023-05-18T01:52:31.792Z,0.00
2023-05-18T01:53:31.789Z,0.00
2023-05-18T01:54:31.786Z,0.00
2023-05-18T01:55:31.976Z,0.00
2023-05-18T01:56:31.905Z,0.00
2023-05-18T01:57:31.742Z,0.00
2023-05-18T01:58:31.723Z,0.00
2023-05-18T01:59:31.721Z,0.00
2023-05-18T02:00:31.703Z,0.00
2023-05-18T02:01:31.753Z,0.00
2023-05-18T02:02:31.932Z,0.00
2023-05-18T02:03:31.724Z,0.00
2023-05-18T02:04:31.668Z,0.00
2023-05-18T02:05:31.792Z,0.00
2023-05-18T02:06:31.646Z,0.00
2023-05-18T02:07:31.633Z,0.00
2023-05-18T02:08:31.753Z,0.00
2023-05-18T02:09:31.632Z,0.00
2023-05-18T02:10:38.105Z,0.00
2023-05-18T02:11:31.599Z,0.00
2023-05-18T02:12:31.579Z,0.00
2023-05-18T02:13:31.576Z,0.00
2023-05-18T02:14:31.687Z,0.00
2023-05-18T02:15:31.724Z,0.00
2023-05-18T02:16:31.565Z,0.00
2023-05-18T02:17:31.583Z,0.00
2023-05-18T02:18:31.655Z,0.00
2023-05-18T02:19:31.528Z,0.00
2023-05-18T02:20:31.665Z,0.00
2023-05-18T02:21:31.501Z,0.00
2023-05-18T02:22:31.479Z,0.00
2023-05-18T02:23:31.476Z,0.00
2023-05-18T02:24:31.453Z,0.00
2023-05-18T02:25:31.776Z,0.00
2023-05-18T02:26:31.473Z,0.00
2023-05-18T02:27:31.429Z,0.00
2023-05-18T02:28:31.406Z,0.00
2023-05-18T02:29:31.413Z,0.00
2023-05-18T02:30:31.389Z,0.00
2023-05-18T02:31:31.410Z,0.00
2023-05-18T02:32:31.445Z,0.00
2023-05-18T02:33:31.368Z,0.00
2023-05-18T02:34:31.358Z,0.00
2023-05-18T02:35:31.706Z,0.00
2023-05-18T02:36:31.335Z,0.00
2023-05-18T02:37:31.322Z,0.00
2023-05-18T02:38:31.459Z,0.00
2023-05-18T02:39:31.311Z,0.00
2023-05-18T02:40:31.286Z,0.00
2023-05-18T02:41:31.282Z,0.00
2023-05-18T02:42:31.271Z,0.00
2023-05-18T02:43:31.264Z,0.00
2023-05-18T02:44:31.404Z,0.00
2023-05-18T02:45:31.462Z,0.00
2023-05-18T02:46:31.268Z,0.00
2023-05-18T02:47:31.267Z,0.00
2023-05-18T02:48:31.226Z,0.00
2023-05-18T02:49:31.202Z,0.00
2023-05-18T02:50:31.331Z,0.00
2023-05-18T02:51:31.201Z,0.00
2023-05-18T02:52:31.173Z,0.00
2023-05-18T02:53:31.174Z,0.00
2023-05-18T02:54:31.145Z,0.00
2023-05-18T02:55:31.393Z,0.00
2023-05-18T02:56:31.269Z,0.00
2023-05-18T02:57:31.126Z,0.00
2023-05-18T02:58:31.113Z,0.00
2023-05-18T02:59:31.113Z,0.00
2023-05-18T03:00:31.035Z,1.00
2023-05-18T03:01:31.139Z,0.00
2023-05-18T03:02:31.311Z,0.00
2023-05-18T03:03:31.075Z,0.00
2023-05-18T03:04:31.048Z,0.00
2023-05-18T03:05:31.269Z,0.00
2023-05-18T03:06:31.033Z,0.00
2023-05-18T03:07:31.022Z,0.00
2023-05-18T03:08:31.160Z,0.00
2023-05-18T03:09:31.041Z,0.00
2023-05-18T03:10:37.482Z,0.00
2023-05-18T03:11:30.945Z,1.00
2023-05-18T03:12:30.910Z,1.00
2023-05-18T03:13:30.917Z,1.00
2023-05-18T03:14:31.053Z,1.00
2023-05-18T03:15:31.062Z,1.00
2023-05-18T03:16:30.878Z,1.00
2023-05-18T03:17:30.925Z,1.00
2023-05-18T03:18:30.866Z,1.00
2023-05-18T03:19:30.848Z,1.00
2023-05-18T03:20:30.989Z,1.00
2023-05-18T03:21:30.828Z,1.00
2023-05-18T03:22:30.816Z,1.00
2023-05-18T03:23:30.803Z,1.00
2023-05-18T03:24:30.794Z,1.00
2023-05-18T03:25:31.009Z,1.00
2023-05-18T03:26:30.826Z,2.00
2023-05-18T03:27:30.825Z,0.00
2023-05-18T03:28:30.840Z,0.00
2023-05-18T03:29:31.701Z,0.00
2023-05-18T03:30:30.791Z,0.00
2023-05-18T03:31:30.824Z,0.00
2023-05-18T03:32:31.065Z,0.00
2023-05-18T03:33:30.760Z,0.00
2023-05-18T03:34:30.748Z,0.00
2023-05-18T03:35:30.999Z,0.00
2023-05-18T03:36:30.726Z,0.00
2023-05-18T03:37:30.718Z,0.00
2023-05-18T03:38:30.815Z,2.00
2023-05-18T03:39:30.658Z,2.00
2023-05-18T03:40:30.628Z,2.00
2023-05-18T03:41:30.633Z,2.00
2023-05-18T03:42:30.608Z,2.00
2023-05-18T03:43:30.605Z,2.00
2023-05-18T03:44:30.739Z,2.00
2023-05-18T03:45:30.861Z,2.00
2023-05-18T03:46:30.634Z,2.00
2023-05-18T03:47:30.627Z,2.00
2023-05-18T03:48:30.547Z,2.00
2023-05-18T03:49:30.544Z,1.00
2023-05-18T03:50:30.712Z,0.00
2023-05-18T03:51:30.552Z,1.00
2023-05-18T03:52:30.507Z,1.00
2023-05-18T03:53:30.500Z,1.00
2023-05-18T03:54:30.498Z,1.00
2023-05-18T03:55:30.705Z,1.00
2023-05-18T03:56:30.618Z,1.00
2023-05-18T03:57:30.462Z,1.00
2023-05-18T03:58:30.449Z,1.00
2023-05-18T03:59:30.444Z,1.00
2023-05-18T04:00:30.434Z,3.00
2023-05-18T04:01:30.563Z,2.00
2023-05-18T04:02:30.678Z,0.00
2023-05-18T04:03:30.634Z,0.00
2023-05-18T04:04:30.397Z,2.00
2023-05-18T04:05:30.607Z,2.00
2023-05-18T04:06:30.366Z,2.00
2023-05-18T04:07:30.369Z,1.00
2023-05-18T04:08:30.573Z,1.00
2023-05-18T04:09:30.345Z,1.00
2023-05-18T04:10:30.323Z,2.00
2023-05-18T04:11:30.318Z,3.00
2023-05-18T04:12:30.309Z,3.00
2023-05-18T04:13:30.303Z,7.00
2023-05-18T04:14:30.455Z,7.00
2023-05-18T04:15:30.452Z,6.00
2023-05-18T04:16:30.276Z,3.00
2023-05-18T04:17:30.313Z,1.00
2023-05-18T04:18:30.348Z,2.00
2023-05-18T04:19:30.341Z,1.00
2023-05-18T04:20:30.370Z,1.00
2023-05-18T04:21:30.219Z,1.00
2023-05-18T04:22:30.207Z,1.00
2023-05-18T04:23:30.189Z,1.00
2023-05-18T04:24:30.181Z,1.00
2023-05-18T04:25:30.428Z,1.00
2023-05-18T04:26:30.328Z,1.00
2023-05-18T04:27:30.166Z,1.00
2023-05-18T04:28:30.136Z,1.00
2023-05-18T04:29:30.136Z,1.00
2023-05-18T04:30:30.119Z,1.00
2023-05-18T04:31:30.293Z,2.00
2023-05-18T04:32:30.407Z,2.00
2023-05-18T04:33:30.090Z,3.00
2023-05-18T04:34:30.077Z,3.00
2023-05-18T04:35:30.277Z,3.00
2023-05-18T04:36:30.056Z,2.00
2023-05-18T04:37:30.059Z,2.00
2023-05-18T04:38:30.198Z,3.00
2023-05-18T04:39:30.026Z,4.00
2023-05-18T04:40:30.017Z,4.00
2023-05-18T04:41:30.007Z,9.00
2023-05-18T04:42:30.000Z,6.00
2023-05-18T04:43:29.994Z,3.00
2023-05-18T04:44:30.019Z,4.00
2023-05-18T04:45:30.300Z,3.00
2023-05-18T04:46:30.035Z,4.00
2023-05-18T04:47:29.969Z,3.00
2023-05-18T04:48:29.953Z,4.00
2023-05-18T04:49:29.941Z,3.00
2023-05-18T04:50:30.172Z,3.00
2023-05-18T04:51:29.907Z,3.00
2023-05-18T04:52:29.898Z,11.00
2023-05-18T04:53:29.887Z,4.00
2023-05-18T04:54:29.876Z,4.00
2023-05-18T04:55:29.872Z,4.00
2023-05-18T04:56:30.011Z,5.00
2023-05-18T04:57:29.847Z,4.00
2023-05-18T04:58:30.504Z,11.00
2023-05-18T04:59:29.827Z,1.00
2023-05-18T05:00:29.821Z,1.00
2023-05-18T05:01:29.862Z,1.00
2023-05-18T05:02:30.019Z,2.00
2023-05-18T05:03:29.884Z,1.00
2023-05-18T05:04:29.777Z,1.00
2023-05-18T05:05:29.980Z,3.00
2023-05-18T05:06:29.765Z,1.00
2023-05-18T05:07:29.755Z,3.00
2023-05-18T05:08:29.898Z,2.00
2023-05-18T05:09:29.723Z,2.00
2023-05-18T05:10:29.715Z,7.00
2023-05-18T05:11:29.714Z,4.00
2023-05-18T05:12:29.686Z,10.00
2023-05-18T05:13:29.678Z,6.00
2023-05-18T05:14:29.689Z,15.00
2023-05-18T05:15:29.848Z,1.00
2023-05-18T05:16:29.688Z,1.00
2023-05-18T05:17:29.641Z,1.00
2023-05-18T05:18:29.632Z,1.00
2023-05-18T05:19:29.698Z,1.00
2023-05-18T05:20:29.761Z,1.00
2023-05-18T05:21:29.588Z,1.00
2023-05-18T05:22:29.608Z,2.00
2023-05-18T05:23:29.572Z,3.00
2023-05-18T05:24:29.562Z,2.00
2023-05-18T05:25:29.690Z,9.00
2023-05-18T05:26:29.701Z,1.00
2023-05-18T05:27:29.537Z,2.00
2023-05-18T05:28:29.522Z,2.00
2023-05-18T05:29:29.524Z,2.00
2023-05-18T05:30:29.526Z,2.00
2023-05-18T05:31:29.497Z,10.00
2023-05-18T05:32:29.711Z,3.00
2023-05-18T05:33:29.472Z,5.00
2023-05-18T05:34:29.506Z,3.00
2023-05-18T05:35:31.194Z,4.00
2023-05-18T05:36:29.449Z,3.00
2023-05-18T05:37:29.431Z,6.00
2023-05-18T05:38:29.597Z,14.00
2023-05-18T05:39:29.417Z,4.00
2023-05-18T05:40:29.405Z,3.00
2023-05-18T05:41:31.719Z,4.00
2023-05-18T05:42:29.383Z,3.00
2023-05-18T05:43:29.380Z,5.00
2023-05-18T05:44:29.412Z,3.00
2023-05-18T05:45:29.484Z,3.00
2023-05-18T05:46:29.392Z,2.00
2023-05-18T05:47:29.362Z,2.00
2023-05-18T05:48:29.324Z,2.00
2023-05-18T05:49:29.315Z,2.00
2023-05-18T05:50:29.464Z,5.00
2023-05-18T05:51:29.291Z,5.00
2023-05-18T05:52:29.287Z,3.00
2023-05-18T05:53:29.276Z,4.00
2023-05-18T05:54:29.279Z,3.00
2023-05-18T05:55:29.485Z,9.00
2023-05-18T05:56:29.387Z,12.00
2023-05-18T05:57:29.228Z,6.00
2023-05-18T05:58:29.231Z,4.00
2023-05-18T05:59:29.211Z,13.00
2023-05-18T06:00:29.217Z,7.00
2023-05-18T06:01:29.183Z,11.00
2023-05-18T06:02:29.537Z,9.00
2023-05-18T06:03:29.261Z,3.00
2023-05-18T06:04:29.252Z,11.00
2023-05-18T06:05:29.432Z,4.00
2023-05-18T06:06:29.161Z,4.00
2023-05-18T06:07:29.127Z,8.00
2023-05-18T06:08:29.272Z,10.00
2023-05-18T06:09:29.103Z,12.00
2023-05-18T06:10:36.685Z,7.00
2023-05-18T06:11:29.137Z,19.00
2023-05-18T06:12:29.078Z,4.00
2023-05-18T06:13:29.061Z,13.00
2023-05-18T06:14:29.231Z,11.00
2023-05-18T06:15:29.219Z,4.00
2023-05-18T06:16:29.096Z,17.00
2023-05-18T06:17:29.039Z,8.00
2023-05-18T06:18:29.031Z,8.00
2023-05-18T06:19:29.001Z,8.00
2023-05-18T06:20:29.170Z,8.00
2023-05-18T06:21:28.981Z,4.00
2023-05-18T06:22:28.975Z,5.00
2023-05-18T06:23:28.964Z,21.00
2023-05-18T06:24:28.957Z,9.00
2023-05-18T06:25:29.244Z,8.00
2023-05-18T06:26:29.009Z,10.00
2023-05-18T06:27:28.925Z,3.00
2023-05-18T06:28:28.923Z,17.00
2023-05-18T06:29:28.896Z,4.00
2023-05-18T06:30:28.893Z,4.00
2023-05-18T06:31:30.332Z,3.00
2023-05-18T06:32:29.213Z,5.00
2023-05-18T06:33:28.867Z,11.00
2023-05-18T06:34:28.853Z,10.00
2023-05-18T06:35:28.993Z,9.00
2023-05-18T06:36:28.838Z,6.00
2023-05-18T06:37:28.822Z,7.00
2023-05-18T06:38:28.844Z,6.00
2023-05-18T06:39:28.808Z,9.00
2023-05-18T06:40:28.829Z,6.00
2023-05-18T06:41:28.784Z,9.00
2023-05-18T06:42:28.784Z,20.00
2023-05-18T06:43:28.794Z,8.00
2023-05-18T06:44:28.904Z,9.00
2023-05-18T06:45:29.141Z,4.00
2023-05-18T06:46:28.744Z,7.00
2023-05-18T06:47:28.807Z,7.00
2023-05-18T06:48:28.706Z,5.00
2023-05-18T06:49:28.697Z,21.00
2023-05-18T06:50:28.838Z,12.00
2023-05-18T06:51:28.694Z,10.00
2023-05-18T06:52:28.673Z,6.00
2023-05-18T06:53:28.657Z,9.00
2023-05-18T06:54:28.656Z,10.00
2023-05-18T06:55:28.858Z,5.00
2023-05-18T06:56:28.795Z,7.00
2023-05-18T06:57:28.616Z,4.00
2023-05-18T06:58:28.613Z,4.00
2023-05-18T06:59:28.591Z,8.00
2023-05-18T07:00:28.588Z,4.00
2023-05-18T07:01:28.597Z,16.00
2023-05-18T07:02:28.776Z,15.00
2023-05-18T07:03:28.574Z,17.00
2023-05-18T07:04:28.546Z,14.00
2023-05-18T07:05:28.806Z,12.00
2023-05-18T07:06:28.523Z,14.00
2023-05-18T07:07:28.553Z,16.00
2023-05-18T07:08:28.674Z,21.00
2023-05-18T07:09:28.526Z,22.00
2023-05-18T07:10:34.970Z,6.00
2023-05-18T07:11:29.629Z,9.00
2023-05-18T07:12:28.458Z,16.00
2023-05-18T07:13:28.449Z,14.00
2023-05-18T07:14:28.611Z,14.00
2023-05-18T07:15:28.479Z,18.00
2023-05-18T07:16:28.616Z,12.00
2023-05-18T07:17:28.437Z,14.00
2023-05-18T07:18:28.414Z,14.00
2023-05-18T07:19:28.487Z,17.00
2023-05-18T07:20:28.556Z,14.00
2023-05-18T07:21:28.390Z,16.00
2023-05-18T07:22:28.354Z,16.00
2023-05-18T07:23:28.342Z,14.00
2023-05-18T07:24:28.355Z,17.00
2023-05-18T07:25:28.373Z,13.00
2023-05-18T07:26:28.458Z,16.00
2023-05-18T07:27:28.304Z,13.00
2023-05-18T07:28:28.303Z,18.00
2023-05-18T07:29:28.279Z,15.00
2023-05-18T07:30:28.283Z,22.00
2023-05-18T07:31:28.327Z,14.00
2023-05-18T07:32:28.451Z,14.00
2023-05-18T07:33:28.244Z,30.00
2023-05-18T07:34:28.244Z,11.00
2023-05-18T07:35:28.222Z,11.00
2023-05-18T07:36:28.206Z,9.00
2023-05-18T07:37:28.199Z,9.00
2023-05-18T07:38:28.238Z,8.00
2023-05-18T07:39:28.189Z,8.00
2023-05-18T07:40:28.178Z,6.00
2023-05-18T07:41:28.155Z,8.00
2023-05-18T07:42:28.156Z,8.00
2023-05-18T07:43:28.145Z,9.00
2023-05-18T07:44:28.293Z,9.00
2023-05-18T07:45:28.262Z,7.00
2023-05-18T07:46:28.162Z,8.00
2023-05-18T07:47:28.119Z,7.00
2023-05-18T07:48:28.091Z,4.00
2023-05-18T07:49:28.071Z,7.00
2023-05-18T07:50:28.113Z,7.00
2023-05-18T07:51:28.053Z,9.00
2023-05-18T07:52:28.054Z,5.00
2023-05-18T07:53:28.042Z,24.00
2023-05-18T07:54:28.025Z,9.00
2023-05-18T07:55:28.082Z,6.00
2023-05-18T07:56:28.148Z,31.00
2023-05-18T07:57:27.994Z,9.00
2023-05-18T07:58:27.983Z,9.00
2023-05-18T07:59:27.978Z,11.00
2023-05-18T08:00:27.970Z,7.00
2023-05-18T08:01:27.955Z,10.00
2023-05-18T08:02:28.222Z,7.00
2023-05-18T08:03:28.074Z,13.00
2023-05-18T08:04:27.965Z,8.00
2023-05-18T08:05:27.914Z,6.00
2023-05-18T08:06:27.904Z,6.00
2023-05-18T08:07:27.888Z,8.00
2023-05-18T08:08:27.921Z,11.00
2023-05-18T08:09:27.872Z,7.00
2023-05-18T08:10:27.859Z,8.00
2023-05-18T08:11:27.845Z,6.00
2023-05-18T08:12:27.839Z,9.00
2023-05-18T08:13:27.826Z,4.00
2023-05-18T08:14:27.974Z,5.00
2023-05-18T08:15:27.803Z,12.00
2023-05-18T08:16:27.865Z,21.00
2023-05-18T08:17:27.864Z,22.00
2023-05-18T08:18:27.794Z,11.00
2023-05-18T08:19:27.800Z,7.00
2023-05-18T08:20:27.928Z,6.00
2023-05-18T08:21:27.738Z,9.00
2023-05-18T08:22:27.740Z,10.00
2023-05-18T08:23:27.725Z,8.00
2023-05-18T08:24:27.731Z,8.00
2023-05-18T08:25:27.711Z,8.00
2023-05-18T08:26:27.878Z,8.00
2023-05-18T08:27:27.678Z,7.00
2023-05-18T08:28:27.664Z,5.00
2023-05-18T08:29:27.657Z,26.00
2023-05-18T08:30:27.653Z,11.00
2023-05-18T08:31:27.659Z,4.00
2023-05-18T08:32:27.720Z,7.00
2023-05-18T08:33:27.616Z,28.00
2023-05-18T08:34:27.615Z,16.00
2023-05-18T08:35:27.593Z,8.00
2023-05-18T08:36:27.592Z,9.00
2023-05-18T08:37:27.575Z,5.00
2023-05-18T08:38:27.740Z,14.00
2023-05-18T08:39:27.560Z,14.00
2023-05-18T08:40:27.550Z,14.00
2023-05-18T08:41:27.531Z,14.00
2023-05-18T08:42:29.718Z,13.00
2023-05-18T08:43:28.896Z,13.00
2023-05-18T08:44:27.661Z,13.00
2023-05-18T08:45:27.499Z,12.00
2023-05-18T08:46:27.493Z,13.00
2023-05-18T08:47:27.498Z,15.00
2023-05-18T08:48:28.323Z,12.00
2023-05-18T08:49:27.456Z,17.00
2023-05-18T08:50:27.638Z,10.00
2023-05-18T08:51:27.429Z,14.00
2023-05-18T08:52:27.411Z,14.00
2023-05-18T08:53:27.414Z,13.00
2023-05-18T08:54:27.399Z,13.00
2023-05-18T08:55:27.396Z,14.00
2023-05-18T08:56:27.564Z,14.00
2023-05-18T08:57:27.371Z,13.00
2023-05-18T08:58:27.360Z,13.00
2023-05-18T08:59:27.352Z,10.00
2023-05-18T09:00:27.418Z,6.00
2023-05-18T09:01:27.342Z,6.00
2023-05-18T09:02:27.558Z,9.00
2023-05-18T09:03:27.309Z,9.00
2023-05-18T09:04:27.354Z,11.00
2023-05-18T09:05:27.339Z,9.00
2023-05-18T09:06:27.278Z,11.00
2023-05-18T09:07:27.269Z,9.00
2023-05-18T09:08:27.433Z,9.00
2023-05-18T09:09:27.248Z,8.00
2023-05-18T09:10:27.225Z,6.00
2023-05-18T09:11:27.253Z,7.00
2023-05-18T09:12:27.208Z,9.00
2023-05-18T09:13:27.203Z,14.00
2023-05-18T09:14:27.405Z,5.00
2023-05-18T09:15:27.185Z,9.00
2023-05-18T09:16:27.223Z,9.00
2023-05-18T09:17:27.195Z,9.00
2023-05-18T09:18:28.489Z,12.00
2023-05-18T09:19:27.236Z,15.00
2023-05-18T09:20:27.324Z,16.00
2023-05-18T09:21:27.123Z,11.00
2023-05-18T09:22:27.104Z,12.00
2023-05-18T09:23:27.103Z,10.00
2023-05-18T09:24:27.083Z,9.00
2023-05-18T09:25:27.082Z,13.00
2023-05-18T09:26:27.101Z,4.00
2023-05-18T09:27:27.069Z,11.00
2023-05-18T09:28:27.051Z,11.00
2023-05-18T09:29:27.044Z,13.00
2023-05-18T09:30:27.018Z,16.00
2023-05-18T09:31:27.028Z,4.00
2023-05-18T09:32:27.100Z,7.00
2023-05-18T09:33:27.144Z,17.00
2023-05-18T09:34:27.001Z,4.00
2023-05-18T09:35:26.977Z,4.00
2023-05-18T09:36:26.957Z,11.00
2023-05-18T09:37:26.967Z,9.00
2023-05-18T09:38:27.215Z,9.00
2023-05-18T09:39:26.943Z,7.00
2023-05-18T09:40:26.939Z,9.00
2023-05-18T09:41:26.913Z,9.00
2023-05-18T09:42:26.904Z,9.00
2023-05-18T09:43:26.896Z,9.00
2023-05-18T09:44:27.131Z,10.00
2023-05-18T09:45:26.889Z,9.00
2023-05-18T09:46:26.891Z,10.00
2023-05-18T09:47:26.884Z,10.00
2023-05-18T09:48:26.842Z,9.00
2023-05-18T09:49:26.831Z,9.00
2023-05-18T09:50:26.979Z,8.00
2023-05-18T09:51:26.817Z,10.00
2023-05-18T09:52:26.797Z,10.00
2023-05-18T09:53:26.792Z,10.00
2023-05-18T09:54:26.782Z,10.00
2023-05-18T09:55:26.769Z,9.00
2023-05-18T09:56:27.096Z,7.00
2023-05-18T09:57:26.750Z,8.00
2023-05-18T09:58:26.737Z,10.00
2023-05-18T09:59:26.725Z,10.00
2023-05-18T10:00:26.758Z,8.00
2023-05-18T10:01:26.885Z,11.00
2023-05-18T10:02:26.948Z,4.00
2023-05-18T10:03:26.690Z,8.00
2023-05-18T10:04:26.728Z,10.00
2023-05-18T10:05:26.663Z,10.00
2023-05-18T10:06:26.655Z,10.00
2023-05-18T10:07:26.651Z,10.00
2023-05-18T10:08:26.821Z,10.00
2023-05-18T10:09:26.624Z,10.00
2023-05-18T10:10:26.619Z,9.00
2023-05-18T10:11:26.600Z,9.00
2023-05-18T10:12:26.592Z,9.00
2023-05-18T10:13:26.577Z,9.00
2023-05-18T10:14:27.703Z,9.00
2023-05-18T10:15:26.571Z,9.00
2023-05-18T10:16:26.595Z,9.00
2023-05-18T10:17:26.699Z,9.00
2023-05-18T10:18:26.548Z,9.00
2023-05-18T10:19:26.581Z,9.00
2023-05-18T10:20:26.690Z,9.00
2023-05-18T10:21:26.502Z,10.00
2023-05-18T10:22:26.485Z,12.00
2023-05-18T10:23:26.482Z,14.00
2023-05-18T10:24:26.473Z,13.00
2023-05-18T10:25:26.492Z,18.00
2023-05-18T10:26:26.566Z,18.00
2023-05-18T10:27:26.436Z,18.00
2023-05-18T10:28:26.434Z,18.00
2023-05-18T10:29:26.438Z,18.00
2023-05-18T10:30:26.402Z,17.00
2023-05-18T10:31:26.506Z,15.00
2023-05-18T10:32:26.753Z,15.00
2023-05-18T10:33:29.526Z,15.00
2023-05-18T10:34:26.366Z,16.00
2023-05-18T10:35:26.356Z,16.00
2023-05-18T10:36:26.335Z,17.00
2023-05-18T10:37:26.347Z,17.00
2023-05-18T10:38:26.726Z,18.00
2023-05-18T10:39:26.313Z,13.00
2023-05-18T10:40:26.309Z,13.00
2023-05-18T10:41:26.350Z,15.00
2023-05-18T10:42:26.363Z,17.00
2023-05-18T10:43:26.284Z,17.00
2023-05-18T10:44:26.522Z,23.00
2023-05-18T10:45:26.263Z,23.00
2023-05-18T10:46:26.523Z,23.00
2023-05-18T10:47:26.373Z,22.00
2023-05-18T10:48:26.256Z,20.00
2023-05-18T10:49:26.238Z,24.00
2023-05-18T10:50:26.530Z,23.00
2023-05-18T10:51:26.193Z,22.00
2023-05-18T10:52:26.173Z,26.00
2023-05-18T10:53:26.168Z,22.00
2023-05-18T10:54:26.158Z,26.00
2023-05-18T10:55:26.150Z,25.00
2023-05-18T10:56:26.545Z,24.00
2023-05-18T10:57:26.127Z,23.00
2023-05-18T10:58:26.122Z,23.00
2023-05-18T10:59:26.110Z,26.00
2023-05-18T11:00:26.111Z,26.00
2023-05-18T11:01:26.111Z,23.00
2023-05-18T11:02:26.196Z,23.00
2023-05-18T11:03:26.074Z,19.00
2023-05-18T11:04:26.071Z,19.00
2023-05-18T11:05:26.107Z,19.00
2023-05-18T11:06:26.032Z,20.00
2023-05-18T11:07:26.024Z,17.00
2023-05-18T11:08:26.110Z,19.00
2023-05-18T11:09:26.006Z,22.00
2023-05-18T11:10:25.991Z,20.00
2023-05-18T11:11:25.990Z,20.00
2023-05-18T11:12:25.971Z,19.00
2023-05-18T11:13:25.965Z,18.00
2023-05-18T11:14:26.167Z,19.00
2023-05-18T11:15:25.938Z,17.00
2023-05-18T11:16:26.497Z,18.00
2023-05-18T11:17:25.921Z,18.00
2023-05-18T11:18:25.905Z,18.00
2023-05-18T11:19:26.021Z,18.00
2023-05-18T11:20:26.131Z,14.00
2023-05-18T11:21:25.884Z,13.00
2023-05-18T11:22:26.216Z,12.00
2023-05-18T11:23:25.852Z,13.00
2023-05-18T11:24:25.843Z,10.00
2023-05-18T11:25:25.965Z,10.00
2023-05-18T11:26:26.007Z,11.00
2023-05-18T11:27:25.815Z,12.00
2023-05-18T11:28:25.811Z,10.00
2023-05-18T11:29:25.829Z,10.00
2023-05-18T11:30:25.804Z,10.00
2023-05-18T11:31:25.841Z,10.00
2023-05-18T11:32:29.856Z,10.00
2023-05-18T11:33:25.817Z,17.00
2023-05-18T11:34:25.733Z,14.00
2023-05-18T11:35:25.802Z,12.00
2023-05-18T11:36:25.722Z,16.00
2023-05-18T11:37:25.716Z,17.00
2023-05-18T11:38:25.868Z,15.00
2023-05-18T11:39:25.691Z,16.00
2023-05-18T11:40:25.679Z,17.00
2023-05-18T11:41:25.676Z,18.00
2023-05-18T11:42:25.662Z,18.00
2023-05-18T11:43:25.654Z,17.00
2023-05-18T11:44:25.800Z,18.00
2023-05-18T11:45:25.630Z,18.00
2023-05-18T11:46:25.612Z,18.00
2023-05-18T11:47:25.674Z,18.00
2023-05-18T11:48:25.744Z,20.00
2023-05-18T11:49:25.588Z,19.00
2023-05-18T11:50:25.746Z,18.00
2023-05-18T11:51:25.571Z,16.00
2023-05-18T11:52:25.553Z,16.00
2023-05-18T11:53:25.547Z,19.00
2023-05-18T11:54:25.540Z,23.00
2023-05-18T11:55:25.528Z,19.00
2023-05-18T11:56:25.654Z,17.00
2023-05-18T11:57:25.509Z,15.00
2023-05-18T11:58:25.497Z,15.00
2023-05-18T11:59:25.486Z,15.00
2023-05-18T12:00:25.464Z,18.00
2023-05-18T12:01:25.471Z,19.00
2023-05-18T12:02:25.569Z,19.00
2023-05-18T12:03:25.551Z,15.00
2023-05-18T12:04:25.453Z,15.00
2023-05-18T12:05:25.448Z,15.00
2023-05-18T12:06:25.420Z,18.00
2023-05-18T12:07:25.446Z,13.00
2023-05-18T12:08:25.597Z,18.00
2023-05-18T12:09:25.401Z,12.00
2023-05-18T12:10:25.977Z,13.00
2023-05-18T12:11:25.357Z,17.00
2023-05-18T12:12:25.345Z,15.00
2023-05-18T12:13:25.345Z,15.00
2023-05-18T12:14:25.486Z,16.00
2023-05-18T12:15:25.379Z,17.00
2023-05-18T12:16:25.326Z,16.00
2023-05-18T12:17:25.315Z,13.00
2023-05-18T12:18:25.278Z,17.00
2023-05-18T12:19:25.405Z,16.00
2023-05-18T12:20:25.485Z,18.00
2023-05-18T12:21:25.266Z,18.00
2023-05-18T12:22:25.244Z,20.00
2023-05-18T12:23:25.248Z,21.00
2023-05-18T12:24:25.210Z,19.00
2023-05-18T12:25:25.218Z,18.00
2023-05-18T12:26:25.346Z,18.00
2023-05-18T12:27:25.195Z,18.00
2023-05-18T12:28:25.173Z,19.00
2023-05-18T12:29:25.175Z,19.00
2023-05-18T12:30:25.157Z,21.00
2023-05-18T12:31:25.214Z,19.00
2023-05-18T12:32:25.209Z,16.00
2023-05-18T12:33:25.123Z,19.00
2023-05-18T12:34:25.113Z,19.00
2023-05-18T12:35:25.120Z,19.00
2023-05-18T12:36:25.102Z,17.00
2023-05-18T12:37:33.670Z,20.00
2023-05-18T12:38:25.235Z,20.00
2023-05-18T12:39:27.107Z,18.00
2023-05-18T12:40:25.058Z,19.00
2023-05-18T12:41:25.058Z,19.00
2023-05-18T12:42:25.032Z,19.00
2023-05-18T12:43:25.029Z,20.00
2023-05-18T12:44:25.180Z,19.00
2023-05-18T12:45:25.007Z,16.00
2023-05-18T12:46:25.102Z,19.00
2023-05-18T12:47:25.010Z,19.00
2023-05-18T12:48:24.971Z,21.00
2023-05-18T12:49:24.956Z,17.00
2023-05-18T12:50:25.080Z,17.00
2023-05-18T12:51:24.942Z,15.00
2023-05-18T12:52:24.930Z,16.00
2023-05-18T12:53:24.954Z,18.00
2023-05-18T12:54:24.913Z,18.00
2023-05-18T12:55:24.949Z,18.00
2023-05-18T12:56:25.069Z,18.00
2023-05-18T12:57:24.877Z,20.00
2023-05-18T12:58:24.872Z,14.00
2023-05-18T12:59:24.857Z,30.00
2023-05-18T13:00:24.850Z,13.00
2023-05-18T13:01:24.882Z,28.00
2023-05-18T13:02:25.097Z,25.00
2023-05-18T13:03:24.903Z,20.00
2023-05-18T13:04:24.813Z,27.00
2023-05-18T13:05:24.796Z,24.00
2023-05-18T13:06:24.788Z,20.00
2023-05-18T13:07:24.771Z,34.00
2023-05-18T13:08:24.967Z,30.00